createdAt,value
2022-08-17T00:00:33.295Z,37.74
2022-08-17T00:05:48.377Z,37.93
2022-08-17T00:10:52.070Z,38.49
2022-08-17T00:16:00.806Z,38.48
2022-08-17T00:21:04.705Z,39.01
2022-08-17T00:26:16.451Z,38.83
2022-08-17T00:31:38.702Z,38.99
2022-08-17T00:36:41.036Z,39.29
2022-08-17T00:41:43.512Z,39.54
2022-08-17T00:46:48.121Z,39.95
2022-08-17T00:51:55.096Z,39.93
2022-08-17T00:57:01.634Z,40.04
2022-08-17T01:02:04.716Z,40.64
2022-08-17T01:07:07.186Z,40.75
2022-08-17T01:12:10.706Z,40.97
2022-08-17T01:17:13.070Z,41.23
2022-08-17T01:22:18.976Z,41.67
2022-08-17T01:27:21.727Z,41.78
2022-08-17T01:32:23.878Z,42.30
2022-08-17T01:37:36.800Z,42.88
2022-08-17T01:42:56.071Z,43.05
2022-08-17T01:47:58.424Z,43.52
2022-08-17T01:53:04.723Z,43.90
2022-08-17T01:58:09.943Z,43.75
2022-08-17T02:03:13.153Z,44.18
2022-08-17T02:08:19.984Z,44.31
2022-08-17T02:13:22.480Z,44.72
2022-08-17T02:18:25.950Z,44.79
2022-08-17T02:23:29.851Z,44.70
2022-08-17T02:28:32.480Z,44.93
2022-08-17T02:33:42.545Z,44.95
2022-08-17T02:38:45.986Z,44.85
2022-08-17T02:43:48.352Z,44.37
2022-08-17T02:48:50.864Z,44.37
2022-08-17T02:53:53.303Z,44.50
2022-08-17T02:59:06.369Z,45.05
2022-08-17T03:04:08.786Z,45.09
2022-08-17T03:09:10.887Z,44.60
2022-08-17T03:14:12.946Z,45.11
2022-08-17T03:19:15.654Z,45.08
2022-08-17T03:24:18.073Z,45.14
2022-08-17T03:29:20.368Z,45.35
2022-08-17T03:34:22.848Z,44.56
2022-08-17T03:39:25.110Z,45.14
2022-08-17T03:44:27.340Z,46.39
2022-08-17T03:49:48.224Z,46.22
2022-08-17T03:55:09.102Z,46.40
2022-08-17T04:00:11.916Z,46.04
2022-08-17T04:05:15.229Z,47.32
2022-08-17T04:10:17.311Z,48.15
2022-08-17T04:15:19.555Z,48.72
2022-08-17T04:20:23.686Z,48.72
2022-08-17T04:25:27.681Z,49.49
2022-08-17T04:30:32.404Z,49.34
2022-08-17T04:36:02.107Z,48.86
2022-08-17T04:41:23.293Z,48.72
2022-08-17T04:46:32.984Z,49.55
2022-08-17T04:51:54.536Z,50.05
2022-08-17T04:56:58.598Z,50.53
2022-08-17T05:02:00.926Z,51.45
2022-08-17T05:07:04.417Z,51.50
2022-08-17T05:12:06.907Z,51.71
2022-08-17T05:17:11.162Z,51.75
2022-08-17T05:22:14.858Z,51.84
2022-08-17T05:27:18.844Z,52.08
2022-08-17T05:32:37.820Z,51.84
2022-08-17T05:37:42.292Z,50.51
2022-08-17T05:42:44.672Z,50.83
2022-08-17T05:47:47.652Z,50.93
2022-08-17T05:53:31.727Z,51.48
2022-08-17T05:58:50.464Z,50.17
2022-08-17T06:04:22.154Z,51.09
2022-08-17T06:09:56.814Z,52.80
2022-08-17T06:15:17.611Z,53.24
2022-08-17T06:20:20.433Z,53.66
2022-08-17T06:25:45.273Z,53.13
2022-08-17T06:31:00.104Z,53.00
2022-08-17T06:36:40.411Z,52.84
2022-08-17T06:42:09.800Z,52.66
2022-08-17T06:47:49.798Z,52.16
2022-08-17T06:52:58.493Z,51.91
2022-08-17T06:58:16.461Z,51.25
2022-08-17T07:03:27.691Z,50.43
2022-08-17T07:08:39.501Z,51.06
2022-08-17T07:14:19.145Z,50.44
2022-08-17T07:19:24.724Z,50.53
2022-08-17T07:24:42.006Z,49.17
2022-08-17T07:29:50.965Z,48.82
2022-08-17T07:35:11.598Z,47.60
2022-08-17T07:40:23.910Z,46.53
2022-08-17T07:45:44.901Z,47.12
2022-08-17T07:50:53.390Z,48.02
2022-08-17T07:55:55.642Z,46.36
2022-08-17T08:01:12.272Z,47.06
2022-08-17T08:06:23.507Z,45.63
2022-08-17T08:11:35.096Z,45.64
2022-08-17T08:16:38.183Z,45.26
2022-08-17T08:21:59.175Z,44.35
2022-08-17T08:27:36.389Z,43.50
2022-08-17T08:32:50.623Z,42.10
2022-08-17T08:38:11.036Z,40.38
2022-08-17T08:43:36.374Z,39.77
2022-08-17T08:48:58.654Z,38.80
2022-08-17T08:54:17.798Z,36.64
2022-08-17T08:59:58.289Z,33.66
2022-08-17T09:05:26.428Z,32.85
2022-08-17T09:10:40.090Z,31.92
2022-08-17T09:15:48.117Z,30.79
2022-08-17T09:20:55.472Z,30.87
2022-08-17T09:26:07.139Z,29.58
2022-08-17T09:31:13.859Z,27.63
2022-08-17T09:36:23.119Z,27.16
2022-08-17T09:41:49.004Z,27.45
2022-08-17T09:46:56.246Z,26.28
2022-08-17T09:52:05.932Z,25.92
2022-08-17T09:57:30.317Z,24.84
2022-08-17T10:02:51.792Z,26.03
2022-08-17T10:08:23.156Z,24.65
2022-08-17T10:13:52.695Z,24.79
2022-08-17T10:18:58.318Z,25.98
2022-08-17T10:24:26.858Z,25.17
2022-08-17T10:29:46.179Z,24.82
2022-08-17T10:35:08.956Z,23.55
2022-08-17T10:40:35.538Z,24.61
2022-08-17T10:45:45.231Z,23.77
2022-08-17T10:51:01.783Z,23.50
2022-08-17T10:56:13.148Z,22.89
2022-08-17T11:01:16.329Z,22.95
2022-08-17T11:06:42.499Z,22.56
2022-08-17T11:12:07.278Z,22.14
2022-08-17T11:17:43.720Z,22.40
2022-08-17T11:22:45.824Z,22.03
2022-08-17T11:27:54.021Z,21.34
2022-08-17T11:32:58.712Z,22.28
2022-08-17T11:38:31.741Z,21.76
2022-08-17T11:43:52.257Z,22.17
2022-08-17T11:49:18.461Z,22.26
2022-08-17T11:54:48.292Z,23.40
2022-08-17T11:59:57.720Z,23.45
2022-08-17T12:05:21.342Z,23.82
2022-08-17T12:10:32.106Z,24.42
2022-08-17T12:15:42.740Z,24.95
2022-08-17T12:20:46.166Z,25.05
2022-08-17T12:25:56.970Z,26.13
2022-08-17T12:31:03.929Z,26.11
2022-08-17T12:36:09.111Z,25.58
2022-08-17T12:41:28.756Z,26.12
2022-08-17T12:46:34.278Z,26.00
2022-08-17T12:51:36.485Z,26.39
2022-08-17T12:56:39.242Z,26.35
2022-08-17T13:01:42.337Z,27.26
2022-08-17T13:06:51.486Z,26.83
2022-08-17T13:12:02.254Z,27.30
2022-08-17T13:17:09.834Z,27.43
2022-08-17T13:22:13.248Z,27.52
2022-08-17T13:27:15.454Z,30.88
2022-08-17T13:32:24.209Z,29.01
2022-08-17T13:37:33.531Z,28.73
2022-08-17T13:42:52.924Z,27.71
2022-08-17T13:48:20.493Z,27.83
2022-08-17T13:53:37.828Z,27.59
2022-08-17T13:58:54.240Z,28.07
2022-08-17T14:03:56.670Z,28.08
2022-08-17T14:08:59.260Z,28.30
2022-08-17T14:14:02.004Z,28.63
2022-08-17T14:19:04.232Z,28.89
2022-08-17T14:24:08.599Z,29.27
2022-08-17T14:29:12.616Z,29.31
2022-08-17T14:34:18.239Z,28.14
2022-08-17T14:39:21.265Z,27.25
2022-08-17T14:44:23.491Z,28.18
2022-08-17T14:49:26.240Z,28.26
2022-08-17T14:54:34.311Z,27.97
2022-08-17T14:59:36.808Z,28.26
2022-08-17T15:04:44.917Z,28.69
2022-08-17T15:09:47.732Z,29.05
2022-08-17T15:14:51.173Z,29.27
2022-08-17T15:19:53.863Z,30.22
2022-08-17T15:24:56.685Z,40.63
2022-08-17T15:29:58.902Z,42.26
2022-08-17T15:35:03.441Z,45.13
2022-08-17T15:40:07.403Z,42.82
2022-08-17T15:45:12.983Z,43.99
2022-08-17T15:50:15.307Z,51.15
2022-08-17T15:55:23.850Z,46.47
2022-08-17T16:00:28.554Z,42.94
2022-08-17T16:05:31.393Z,41.47
2022-08-17T16:10:34.534Z,40.38
2022-08-17T16:15:38.392Z,40.17
2022-08-17T16:20:40.848Z,36.81
2022-08-17T16:25:52.884Z,34.71
2022-08-17T16:30:56.639Z,32.66
2022-08-17T16:35:58.879Z,33.04
2022-08-17T16:41:01.234Z,31.33
2022-08-17T16:46:03.920Z,31.16
2022-08-17T16:51:06.191Z,28.72
2022-08-17T16:56:08.250Z,30.08
2022-08-17T17:01:10.795Z,30.51
2022-08-17T17:06:33.648Z,29.52
2022-08-17T17:11:44.556Z,27.67
2022-08-17T17:17:07.917Z,28.08
2022-08-17T17:22:19.266Z,28.24
2022-08-17T17:27:41.459Z,27.29
2022-08-17T17:32:53.030Z,28.22
2022-08-17T17:37:57.666Z,28.98
2022-08-17T17:43:20.384Z,28.16
2022-08-17T17:48:24.024Z,28.91
2022-08-17T17:53:35.242Z,29.98
2022-08-17T17:58:58.350Z,30.15
2022-08-17T18:04:24.729Z,29.84
2022-08-17T18:09:41.965Z,30.14
2022-08-17T18:15:07.706Z,28.63
2022-08-17T18:20:10.338Z,29.67
2022-08-17T18:25:43.891Z,29.03
2022-08-17T18:31:07.305Z,30.29
2022-08-17T18:36:09.558Z,28.73
2022-08-17T18:41:19.319Z,28.10
2022-08-17T18:46:37.659Z,28.53
2022-08-17T18:51:43.151Z,28.24
2022-08-17T18:57:00.017Z,29.34
2022-08-17T19:07:43.930Z,30.82
2022-08-17T19:13:12.563Z,31.14
2022-08-17T19:18:23.587Z,31.27
2022-08-17T19:23:53.735Z,32.64
2022-08-17T19:29:04.624Z,36.50
2022-08-17T19:34:07.899Z,42.81
2022-08-17T19:39:13.696Z,48.26
2022-08-17T19:44:43.560Z,57.89
2022-08-17T19:50:04.880Z,57.66
2022-08-17T19:55:21.381Z,51.33
2022-08-17T20:00:24.411Z,54.47
2022-08-17T20:05:30.178Z,52.08
2022-08-17T20:10:54.769Z,50.08
2022-08-17T20:15:57.365Z,49.70
2022-08-17T20:21:03.365Z,51.92
2022-08-17T20:26:05.442Z,49.38
2022-08-17T20:31:39.640Z,47.56
2022-08-17T20:37:01.699Z,47.68
2022-08-17T20:42:24.178Z,48.12
2022-08-17T20:47:55.134Z,48.61
2022-08-17T20:53:06.941Z,49.00
2022-08-17T20:58:14.979Z,49.44
2022-08-17T21:03:23.085Z,49.68
2022-08-17T21:08:29.574Z,48.31
2022-08-17T21:13:55.931Z,48.84
2022-08-17T21:19:22.762Z,49.00
2022-08-17T21:24:37.898Z,48.56
2022-08-17T21:30:14.877Z,48.36
2022-08-17T21:35:25.438Z,48.55
2022-08-17T21:40:31.549Z,48.40
2022-08-17T21:45:36.783Z,47.99
2022-08-17T21:50:41.791Z,47.24
2022-08-17T21:55:48.829Z,46.58
2022-08-17T22:01:10.879Z,46.23
2022-08-17T22:06:21.998Z,46.18
2022-08-17T22:11:24.440Z,45.62
2022-08-17T22:16:30.177Z,46.18
2022-08-17T22:21:32.714Z,45.68
2022-08-17T22:26:59.636Z,45.63
2022-08-17T22:32:01.906Z,45.97
2022-08-17T22:37:21.377Z,47.04
2022-08-17T22:42:31.497Z,47.60
2022-08-17T22:47:43.176Z,48.16
2022-08-17T22:53:04.399Z,48.56
2022-08-17T22:58:33.875Z,48.50
2022-08-17T23:03:56.848Z,48.30
2022-08-17T23:08:58.955Z,48.39
2022-08-17T23:14:01.212Z,47.96
2022-08-17T23:19:03.496Z,47.84
2022-08-17T23:24:08.005Z,48.20
2022-08-17T23:29:10.373Z,47.48
2022-08-17T23:34:14.772Z,47.38
2022-08-17T23:39:27.738Z,47.58
2022-08-17T23:44:31.261Z,47.10
2022-08-17T23:49:34.629Z,47.59
2022-08-17T23:54:44.866Z,47.64
2022-08-17T23:59:47.340Z,47.71
